Ventura — ZCDT2 — position and weather

sailwx.info

Track history (hours):
 
Tides and Currents Weather Stations Pressure Air Temp Water Temp Dewpoint Dewpoint Depression Visibility Wind Speed Wind Dir Waves Ship Positions

Ventura

Last reported at 2019-Nov-11 21:21 UTC. Time now 2019-Nov-11 22:36 UTC.
Position N 36°12' W 011°32'.

Length 289 m; draft 8.6 m.

Type: Passenger vessel. MMSI: 310562000.

Date/timePositionNaut miles runAvg speedWind from/ knotsBaromVisibWave heightAir tempDewpointWater temp
2019-Nov-11 21:21N 36°12' W 011°32'3626.3
2019-Nov-11 20:00N 35°36' W 011°36'39815.6 350 / 231021.910.8 19.518.720.9
2019-Nov-10 18:30N 29°07' W 013°14'18 1.8
2019-Nov-10 08:34N 28°58' W 013°32'12 4.8
2019-Nov-10 06:00N 28°48' W 013°41'6312.6
2019-Nov-10 01:00N 28°22' W 014°45'1610.7
2019-Nov-09 23:30N 28°08' W 014°55'510.5
2019-Nov-09 23:00N 28°06' W 014°60'23 3.5
2019-Nov-09 16:28N 28°08' W 015°25'0 0.0
2019-Nov-09 15:25N 28°08' W 015°25'0 0.0
2019-Nov-09 10:28N 28°08' W 015°25'0 0.0
2019-Nov-09 09:58N 28°08' W 015°25'15 3.3
2019-Nov-09 05:30N 28°21' W 015°17'2713.3
2019-Nov-09 03:30N 28°39' W 015°39'612.9
2019-Nov-09 03:00N 28°42' W 015°45'1313.0
2019-Nov-09 02:00N 28°50' W 015°58'3112.1
2019-Nov-08 23:28N 28°50' W 016°33'1811.8
2019-Nov-08 21:56N 28°47' W 016°53'128 5.6
2019-Nov-07 23:00N 30°54' W 017°12'143 7.2 040 / 231021.210.8 22.418.822.2
2019-Nov-07 03:00N 33°06' W 016°06'13645.4 020 / 151021.310.8 20.516.422.1
2019-Nov-07 00:00N 34°00' W 013°36'37015.4 040 / 181023.110.8 17.5 0.321.8
2019-Nov-06 00:00N 40°06' W 012°24'7117.9 340 / 221023.510.8 17.213.518.4
2019-Nov-05 20:00N 41°12' W 011°48'52215.4 340 / 231022.510.8 16.513.918.4
2019-Nov-04 10:00N 48°35' W 005°19'9415.6
2019-Nov-04 04:00N 49°36' W 003°30'8 8.4 230 / 31983.410.8 13.510.614.7
2019-Nov-04 03:00N 49°43' W 003°22'3014.8
2019-Nov-04 01:01N 49°59' W 002°44'1413.9
2019-Nov-04 00:00N 50°03' W 002°24'3514.0
2019-Nov-03 21:31N 50°21' W 001°36'815.4
2019-Nov-03 21:01N 50°24' W 001°25'29 7.3
2019-Nov-03 16:59N 50°54' W 001°24'0 0.0
2019-Nov-03 14:59N 50°54' W 001°24'0 0.0
2019-Nov-03 14:29N 50°54' W 001°24'0 0.0
2019-Nov-03 13:29N 50°54' W 001°24'0 0.0
2019-Nov-03 09:59N 50°54' W 001°24'0 0.0
2019-Nov-03 07:59N 50°54' W 001°24'0 0.0
2019-Nov-03 06:30N 50°54' W 001°24'2 3.2
2019-Nov-03 06:00N 50°52' W 001°23'29 6.3
2019-Nov-03 01:30N 50°25' W 001°34'30 8.5
2019-Nov-02 21:55N 50°13' W 002°18'3 6.9
2019-Nov-02 21:30N 50°13' W 002°14'7 7.1
2019-Nov-02 20:31N 50°14' W 002°03'8 8.0
2019-Nov-02 19:30N 50°15' W 001°50'4 8.9
2019-Nov-02 19:01N 50°16' W 001°43'5 9.1
2019-Nov-02 18:30N 50°16' W 001°36'5 9.3
2019-Nov-02 18:00N 50°17' W 001°29'5 9.3
2019-Nov-02 17:30N 50°17' W 001°22'27 3.6
2019-Nov-02 10:01N 50°02' W 000°47'1312.8
2019-Nov-02 09:00N 49°58' W 001°06'713.1
2019-Nov-02 08:31N 49°55' W 001°15'1312.9
2019-Nov-02 07:30N 49°50' W 001°33'1913.0
2019-Nov-02 06:00N 49°49' W 002°04'1715.7
2019-Nov-02 04:57N 49°51' W 002°29'6518.1
2019-Nov-02 01:21N 49°18' W 003°56'1118.4
2019-Nov-02 00:46N 49°12' W 004°09'1018.5
2019-Nov-02 00:14N 49°06' W 004°21'418.3
2019-Nov-02 00:00N 49°04' W 004°26'918.0
2019-Nov-01 23:30N 48°58' W 004°37'918.0
2019-Nov-01 23:00N 48°53' W 004°48'918.0
2019-Nov-01 22:30N 48°47' W 004°59'816.9
2019-Nov-01 22:01N 48°41' W 005°08'917.9
2019-Nov-01 21:30N 48°35' W 005°17'  
Track history (hours):
 
Tides and Currents Weather Stations Pressure Air Temp Water Temp Dewpoint Dewpoint Depression Visibility Wind Speed Wind Dir Waves Ship Positions

Ventura

Last reported at 2019-Nov-11 21:21 UTC. Time now 2019-Nov-11 22:36 UTC.
Position N 36°12' W 011°32'.

Length 289 m; draft 8.6 m.

Type: Passenger vessel. MMSI: 310562000.

Date/timePositionNaut miles runAvg speedWind from/ knotsBaromVisibWave heightAir tempDewpointWater temp
2019-Nov-11 21:21N 36°12' W 011°32'3626.3
2019-Nov-11 20:00N 35°36' W 011°36'39815.6 350 / 231021.910.8 19.518.720.9
2019-Nov-10 18:30N 29°07' W 013°14'18 1.8
2019-Nov-10 08:34N 28°58' W 013°32'12 4.8
2019-Nov-10 06:00N 28°48' W 013°41'6312.6
2019-Nov-10 01:00N 28°22' W 014°45'1610.7
2019-Nov-09 23:30N 28°08' W 014°55'510.5
2019-Nov-09 23:00N 28°06' W 014°60'23 3.5
2019-Nov-09 16:28N 28°08' W 015°25'0 0.0
2019-Nov-09 15:25N 28°08' W 015°25'0 0.0
2019-Nov-09 10:28N 28°08' W 015°25'0 0.0
2019-Nov-09 09:58N 28°08' W 015°25'15 3.3
2019-Nov-09 05:30N 28°21' W 015°17'2713.3
2019-Nov-09 03:30N 28°39' W 015°39'612.9
2019-Nov-09 03:00N 28°42' W 015°45'1313.0
2019-Nov-09 02:00N 28°50' W 015°58'3112.1
2019-Nov-08 23:28N 28°50' W 016°33'1811.8
2019-Nov-08 21:56N 28°47' W 016°53'128 5.6
2019-Nov-07 23:00N 30°54' W 017°12'143 7.2 040 / 231021.210.8 22.418.822.2
2019-Nov-07 03:00N 33°06' W 016°06'13645.4 020 / 151021.310.8 20.516.422.1
2019-Nov-07 00:00N 34°00' W 013°36'37015.4 040 / 181023.110.8 17.5 0.321.8
2019-Nov-06 00:00N 40°06' W 012°24'7117.9 340 / 221023.510.8 17.213.518.4
2019-Nov-05 20:00N 41°12' W 011°48'52215.4 340 / 231022.510.8 16.513.918.4
2019-Nov-04 10:00N 48°35' W 005°19'9415.6
2019-Nov-04 04:00N 49°36' W 003°30'8 8.4 230 / 31983.410.8 13.510.614.7
2019-Nov-04 03:00N 49°43' W 003°22'3014.8
2019-Nov-04 01:01N 49°59' W 002°44'1413.9
2019-Nov-04 00:00N 50°03' W 002°24'3514.0
2019-Nov-03 21:31N 50°21' W 001°36'815.4
2019-Nov-03 21:01N 50°24' W 001°25'29 7.3
2019-Nov-03 16:59N 50°54' W 001°24'0 0.0
2019-Nov-03 14:59N 50°54' W 001°24'0 0.0
2019-Nov-03 14:29N 50°54' W 001°24'0 0.0
2019-Nov-03 13:29N 50°54' W 001°24'0 0.0
2019-Nov-03 09:59N 50°54' W 001°24'0 0.0
2019-Nov-03 07:59N 50°54' W 001°24'0 0.0
2019-Nov-03 06:30N 50°54' W 001°24'2 3.2
2019-Nov-03 06:00N 50°52' W 001°23'29 6.3
2019-Nov-03 01:30N 50°25' W 001°34'30 8.5
2019-Nov-02 21:55N 50°13' W 002°18'3 6.9
2019-Nov-02 21:30N 50°13' W 002°14'7 7.1
2019-Nov-02 20:31N 50°14' W 002°03'8 8.0
2019-Nov-02 19:30N 50°15' W 001°50'4 8.9
2019-Nov-02 19:01N 50°16' W 001°43'5 9.1
2019-Nov-02 18:30N 50°16' W 001°36'5 9.3
2019-Nov-02 18:00N 50°17' W 001°29'5 9.3
2019-Nov-02 17:30N 50°17' W 001°22'27 3.6
2019-Nov-02 10:01N 50°02' W 000°47'1312.8
2019-Nov-02 09:00N 49°58' W 001°06'713.1
2019-Nov-02 08:31N 49°55' W 001°15'1312.9
2019-Nov-02 07:30N 49°50' W 001°33'1913.0
2019-Nov-02 06:00N 49°49' W 002°04'1715.7
2019-Nov-02 04:57N 49°51' W 002°29'6518.1
2019-Nov-02 01:21N 49°18' W 003°56'1118.4
2019-Nov-02 00:46N 49°12' W 004°09'1018.5
2019-Nov-02 00:14N 49°06' W 004°21'418.3
2019-Nov-02 00:00N 49°04' W 004°26'918.0
2019-Nov-01 23:30N 48°58' W 004°37'918.0
2019-Nov-01 23:00N 48°53' W 004°48'918.0
2019-Nov-01 22:30N 48°47' W 004°59'816.9
2019-Nov-01 22:01N 48°41' W 005°08'917.9
2019-Nov-01 21:30N 48°35' W 005°17'  

Dump ship's entire track history